San Diego, California
Traffic Map
Current Weather Conditions
San Diego, California
Broken Clouds
Broken Clouds
18°
Feels Like: 18°
Wind Chill: 18° Ceiling: 20000
Heat Index: 18° Visibility: 9mi
Dew Point: 15° Wind: 0mph
Humidity: 81% Direction: ° ()
Pressure: 30.06in Gusts: 0mph
Raw Report DataKSAN 290651Z 00000KT 9SM FEW007 BKN200 18/15 A3006 RMK AO2 SLP180 T01830150
Traffic Incident Summary
Active as of:
Severity:
Category:
InformationThere was an issue retrieving the traffic information for this location. Please try a different location or try again shortly.
Advertisements
Track Severe Weather on mobile